Time;durP1;ratioP1;P1;durP2;ratioP2;P2;SDS_P1;SDS_P2;PMS_P1;PMS_P2;Temp;Humidity;BMP_temperature;BMP_pressure;BME280_temperature;BME280_humidity;BME280_pressure;Samples;Min_cycle;Max_cycle;Signal;HPM_P1;HPM_P2
2022/11/27 05:30:07;;;;;;;5.00;3.65;;;12.40;88.00;;;;;;6009114;23;20029;-87
2022/11/27 05:32:33;;;;;;;6.18;3.78;;;12.40;88.20;;;;;;4954066;28;20050;-88
2022/11/27 05:34:58;;;;;;;7.57;4.25;;;12.40;88.20;;;;;;4957288;28;20777;-88
2022/11/27 05:37:24;;;;;;;6.95;3.80;;;12.30;88.30;;;;;;4956960;28;20507;-88
2022/11/27 05:39:50;;;;;;;5.65;3.53;;;12.40;88.30;;;;;;4957377;28;20023;-88
2022/11/27 05:42:15;;;;;;;8.55;3.95;;;12.40;88.40;;;;;;4957995;28;20499;-87
2022/11/27 05:44:41;;;;;;;6.53;3.65;;;12.40;88.20;;;;;;4955985;29;20035;-87
2022/11/27 05:47:06;;;;;;;6.57;3.85;;;12.30;88.40;;;;;;4949261;29;20063;-87
2022/11/27 05:49:32;;;;;;;8.02;3.95;;;12.40;88.40;;;;;;4938553;29;20411;-87
2022/11/27 05:51:58;;;;;;;4.40;3.47;;;12.50;88.20;;;;;;4939301;29;20028;-86
2022/11/27 05:54:24;;;;;;;6.72;4.30;;;12.40;88.20;;;;;;4957333;28;20031;-87
2022/11/27 05:56:49;;;;;;;6.93;4.30;;;12.50;88.20;;;;;;4955976;29;20586;-87
2022/11/27 05:59:15;;;;;;;6.38;3.88;;;12.50;88.20;;;;;;4955467;29;20027;-86
2022/11/27 06:01:41;;;;;;;5.30;4.13;;;12.40;87.80;;;;;;4957189;28;20439;-86
2022/11/27 06:04:07;;;;;;;6.03;3.92;;;12.40;88.10;;;;;;4954533;28;20023;-86
2022/11/27 06:06:32;;;;;;;7.95;4.50;;;12.40;88.30;;;;;;4956018;29;20035;-87
2022/11/27 06:08:58;;;;;;;10.38;4.63;;;12.50;88.20;;;;;;4957770;29;20027;-87
2022/11/27 06:11:23;;;;;;;6.93;3.80;;;12.50;88.20;;;;;;4957872;29;20034;-86
2022/11/27 06:13:50;;;;;;;6.72;4.07;;;12.40;88.10;;;;;;4957969;28;20102;-86
2022/11/27 06:16:21;;;;;;;7.13;4.28;;;12.40;88.30;;;;;;4952941;29;20056;-86
2022/11/27 06:18:54;;;;;;;9.50;4.50;;;12.30;88.40;;;;;;4953501;29;20122;-87
2022/11/27 06:21:21;;;;;;;8.23;4.00;;;12.40;88.30;;;;;;4937497;29;20070;-87
2022/11/27 06:23:50;;;;;;;6.45;4.28;;;12.40;88.20;;;;;;4951572;29;20726;-87
2022/11/27 06:26:17;;;;;;;8.50;4.50;;;12.40;88.00;;;;;;4953132;29;20035;-86
2022/11/27 06:28:43;;;;;;;7.72;4.63;;;12.40;88.00;;;;;;4955424;29;20023;-87
2022/11/27 06:31:11;;;;;;;8.02;4.47;;;12.50;88.30;;;;;;4957437;28;20050;-88
2022/11/27 06:33:38;;;;;;;10.48;4.72;;;12.40;88.00;;;;;;4956911;28;20030;-87
2022/11/27 06:36:04;;;;;;;9.07;4.63;;;12.30;88.40;;;;;;4957632;28;20023;-86
2022/11/27 06:38:34;;;;;;;6.57;4.53;;;12.30;88.40;;;;;;4957745;28;20031;-87
2022/11/27 06:41:05;;;;;;;9.90;4.30;;;12.40;88.60;;;;;;4940086;28;20061;-88
2022/11/27 06:43:31;;;;;;;7.68;4.32;;;12.40;88.40;;;;;;4938314;29;20046;-87
2022/11/27 06:45:58;;;;;;;12.40;5.00;;;12.50;88.40;;;;;;4952170;29;20067;-86
2022/11/27 06:48:24;;;;;;;7.93;4.65;;;12.50;88.20;;;;;;4937433;29;20031;-87
2022/11/27 06:50:50;;;;;;;10.98;4.13;;;12.50;88.20;;;;;;4937315;29;20028;-86
2022/11/27 06:53:16;;;;;;;6.10;4.28;;;12.50;88.10;;;;;;4958154;28;20118;-76
2022/11/27 06:55:41;;;;;;;6.72;4.30;;;12.50;88.40;;;;;;4956770;29;20039;-78
2022/11/27 06:58:07;;;;;;;7.72;4.65;;;12.50;88.20;;;;;;4957026;28;20065;-82
2022/11/27 07:00:33;;;;;;;10.35;4.28;;;12.50;88.30;;;;;;4957071;29;20039;-79
2022/11/27 07:02:58;;;;;;;7.75;4.60;;;12.60;88.20;;;;;;4956544;29;20110;-79
2022/11/27 07:05:24;;;;;;;6.78;4.03;;;12.60;88.20;;;;;;4957200;28;20531;-79
2022/11/27 07:07:50;;;;;;;6.35;3.72;;;12.60;88.10;;;;;;4956119;28;20033;-78
2022/11/27 07:10:15;;;;;;;7.78;4.35;;;12.60;88.10;;;;;;4957144;28;20026;-77
2022/11/27 07:12:41;;;;;;;10.90;4.40;;;12.60;88.10;;;;;;4956573;28;20079;-75
2022/11/27 07:15:08;;;;;;;7.88;4.10;;;12.60;88.10;;;;;;4956794;28;20034;-80
2022/11/27 07:17:33;;;;;;;8.43;4.43;;;12.70;88.10;;;;;;4957016;28;20020;-79
2022/11/27 07:19:59;;;;;;;11.15;4.82;;;12.70;88.10;;;;;;4953266;28;20075;-80
2022/11/27 07:22:25;;;;;;;9.73;4.38;;;12.70;88.10;;;;;;4947448;29;20028;-74
2022/11/27 07:24:50;;;;;;;6.45;4.20;;;12.70;88.20;;;;;;4953355;28;20440;-78
2022/11/27 07:27:16;;;;;;;6.47;4.65;;;12.70;88.10;;;;;;4936517;29;20034;-77
2022/11/27 07:29:42;;;;;;;8.13;4.68;;;12.60;88.40;;;;;;4943139;29;20031;-77
2022/11/27 07:32:07;;;;;;;11.18;4.63;;;12.70;88.40;;;;;;4958097;28;20177;-78
2022/11/27 07:34:33;;;;;;;8.65;4.95;;;12.70;88.40;;;;;;4960447;28;20031;-76
2022/11/27 07:36:59;;;;;;;7.25;3.97;;;12.70;88.40;;;;;;4955254;28;20035;-79
2022/11/27 07:39:24;;;;;;;6.53;4.22;;;12.70;88.40;;;;;;4971656;28;20063;-80
2022/11/27 07:41:50;;;;;;;9.00;4.38;;;12.70;88.30;;;;;;4962500;28;20086;-76
2022/11/27 07:44:16;;;;;;;8.55;4.75;;;12.80;88.30;;;;;;4965346;28;20024;-79
2022/11/27 07:46:42;;;;;;;9.65;4.22;;;12.80;88.30;;;;;;4946083;29;20050;-79
2022/11/27 07:49:08;;;;;;;11.88;4.45;;;12.80;88.50;;;;;;4949780;29;20043;-78
2022/11/27 07:51:33;;;;;;;5.63;4.07;;;12.80;88.50;;;;;;4949747;29;20027;-78
2022/11/27 07:56:34;;;;;;;7.68;4.35;;;12.80;88.40;;;;;;4974525;23;20055;-77
2022/11/27 07:59:00;;;;;;;6.68;4.22;;;12.80;88.50;;;;;;4958650;28;20442;-77
2022/11/27 08:01:28;;;;;;;9.45;4.70;;;12.80;88.40;;;;;;4956985;28;20038;-79
2022/11/27 08:03:54;;;;;;;7.10;4.00;;;12.80;88.40;;;;;;4948001;28;20029;-77
2022/11/27 08:06:23;;;;;;;7.20;3.80;;;12.80;88.40;;;;;;4965258;28;20046;-78
2022/11/27 08:08:49;;;;;;;7.25;4.20;;;12.80;88.50;;;;;;4964379;28;20027;-77
2022/11/27 08:11:34;;;;;;;6.97;4.22;;;12.90;88.50;;;;;;4968377;28;20026;-76
2022/11/27 08:14:02;;;;;;;6.32;4.15;;;12.80;88.50;;;;;;4963674;28;20022;-76
2022/11/27 08:16:36;;;;;;;4.53;3.47;;;12.90;88.50;;;;;;4963992;28;20089;-80
2022/11/27 08:19:02;;;;;;;7.78;3.70;;;12.90;88.60;;;;;;4962838;28;20070;-81
2022/11/27 08:21:29;;;;;;;7.03;3.33;;;12.90;88.60;;;;;;4963105;28;20039;-82
2022/11/27 08:23:56;;;;;;;6.25;3.75;;;12.90;88.70;;;;;;4968588;28;20060;-79
2022/11/27 08:26:22;;;;;;;4.30;3.05;;;12.90;88.70;;;;;;4969279;28;20042;-79
2022/11/27 08:28:50;;;;;;;5.80;3.22;;;13.00;88.60;;;;;;4963400;28;20027;-79
2022/11/27 08:31:16;;;;;;;3.28;2.85;;;13.00;88.60;;;;;;4951487;29;20031;-79
2022/11/27 08:33:42;;;;;;;4.97;2.67;;;13.00;88.60;;;;;;4955271;28;20030;-79
2022/11/27 08:36:08;;;;;;;3.17;2.67;;;13.00;88.60;;;;;;4967068;28;20019;-80
2022/11/27 08:38:34;;;;;;;3.80;2.78;;;13.00;88.60;;;;;;4962134;28;20634;-78
2022/11/27 08:41:01;;;;;;;7.15;2.97;;;13.10;88.60;;;;;;4966017;28;20071;-81
2022/11/27 08:43:28;;;;;;;5.28;3.55;;;13.10;88.60;;;;;;4966700;28;20034;-82
2022/11/27 08:45:54;;;;;;;4.05;2.67;;;13.20;88.60;;;;;;4967763;28;20038;-86
2022/11/27 08:48:21;;;;;;;3.75;2.65;;;13.10;88.80;;;;;;4961854;28;20015;-79
2022/11/27 08:50:47;;;;;;;5.15;2.70;;;13.20;88.70;;;;;;4960021;28;20115;-80
2022/11/27 08:53:13;;;;;;;5.57;3.13;;;13.10;88.80;;;;;;4953848;28;20038;-79
2022/11/27 08:55:39;;;;;;;5.43;3.38;;;13.20;88.90;;;;;;4951601;28;20051;-79
2022/11/27 08:58:05;;;;;;;4.97;3.42;;;13.20;88.90;;;;;;4946025;29;20644;-80
2022/11/27 09:00:31;;;;;;;4.68;3.20;;;13.20;88.80;;;;;;4953635;29;20035;-80
2022/11/27 09:03:00;;;;;;;4.43;2.83;;;13.20;88.90;;;;;;4954514;28;20577;-80
2022/11/27 09:05:27;;;;;;;4.90;2.80;;;13.30;88.90;;;;;;4957936;28;20121;-77
2022/11/27 09:07:53;;;;;;;5.22;2.47;;;13.30;89.00;;;;;;4951541;28;20031;-78
2022/11/27 09:10:19;;;;;;;3.78;2.60;;;13.30;89.00;;;;;;4953913;28;20031;-88
2022/11/27 09:12:45;;;;;;;4.57;2.95;;;13.30;89.00;;;;;;4954472;29;20038;-77
2022/11/27 09:15:12;;;;;;;4.13;2.90;;;13.40;89.20;;;;;;4955156;29;20023;-77
2022/11/27 09:17:37;;;;;;;5.78;2.90;;;13.30;89.10;;;;;;4955280;29;20498;-78
2022/11/27 09:20:05;;;;;;;5.13;2.45;;;13.30;89.20;;;;;;4955232;29;20039;-78
2022/11/27 09:22:30;;;;;;;6.07;2.85;;;13.40;89.20;;;;;;4955431;28;20034;-78
2022/11/27 09:24:56;;;;;;;4.35;2.67;;;13.40;89.30;;;;;;4952444;28;20045;-78
2022/11/27 09:27:22;;;;;;;3.13;2.53;;;13.50;89.30;;;;;;4964265;28;20157;-78
2022/11/27 09:29:48;;;;;;;6.88;2.25;;;13.50;89.20;;;;;;4948484;28;20109;-78
2022/11/27 09:32:14;;;;;;;3.78;2.67;;;13.50;89.20;;;;;;4956794;29;20498;-78
2022/11/27 09:34:40;;;;;;;2.92;2.38;;;13.50;89.20;;;;;;4952317;29;20375;-78
2022/11/27 09:37:06;;;;;;;2.85;2.05;;;13.50;89.40;;;;;;4953342;29;20023;-78
2022/11/27 09:39:32;;;;;;;3.05;2.40;;;13.50;89.30;;;;;;4950195;28;20038;-78
2022/11/27 09:42:04;;;;;;;2.45;1.92;;;13.50;89.20;;;;;;4954267;29;20021;-78
2022/11/27 09:44:38;;;;;;;5.03;2.78;;;13.50;89.30;;;;;;4956856;28;20035;-78
2022/11/27 09:47:16;;;;;;;3.92;2.80;;;13.50;89.10;;;;;;4965356;28;20082;-77
2022/11/27 09:49:56;;;;;;;5.55;2.72;;;13.50;89.10;;;;;;4955090;28;20065;-78
2022/11/27 09:52:38;;;;;;;4.15;2.80;;;13.40;88.80;;;;;;4962547;28;20033;-77
2022/11/27 09:55:21;;;;;;;3.70;2.33;;;13.40;89.00;;;;;;4960750;28;20055;-78
2022/11/27 09:58:19;;;;;;;4.30;2.40;;;13.40;88.90;;;;;;4952261;28;20034;-75
2022/11/27 10:00:45;;;;;;;5.25;3.25;;;13.40;88.80;;;;;;4941864;29;20065;-80
2022/11/27 10:03:18;;;;;;;3.83;3.00;;;13.40;88.70;;;;;;4951748;28;20031;-75
2022/11/27 10:06:13;;;;;;;3.78;2.53;;;13.40;88.70;;;;;;4948287;28;20038;-77
2022/11/27 10:09:11;;;;;;;3.95;2.22;;;13.30;88.70;;;;;;4942698;29;20110;-76
2022/11/27 10:11:42;;;;;;;6.78;3.42;;;13.30;88.80;;;;;;4948401;29;20039;-77
2022/11/27 10:14:29;;;;;;;5.85;2.58;;;13.30;88.90;;;;;;4946856;29;20039;-76
2022/11/27 10:17:19;;;;;;;4.18;2.90;;;13.30;89.00;;;;;;4945956;29;20039;-76
2022/11/27 10:20:00;;;;;;;4.07;2.85;;;13.30;89.00;;;;;;4953754;28;20081;-81
2022/11/27 10:22:53;;;;;;;4.35;3.42;;;13.30;89.00;;;;;;4941901;28;20483;-76
2022/11/27 10:25:43;;;;;;;8.38;3.30;;;13.30;89.00;;;;;;4952838;29;20050;-76
2022/11/27 10:28:37;;;;;;;3.63;2.72;;;13.40;89.00;;;;;;4955259;28;20038;-76
2022/11/27 10:31:13;;;;;;;4.65;2.65;;;13.40;88.90;;;;;;4944583;29;20035;-77
2022/11/27 10:33:50;;;;;;;5.40;2.88;;;13.40;89.00;;;;;;4945280;29;20043;-77
2022/11/27 10:36:33;;;;;;;3.42;2.50;;;13.50;89.10;;;;;;4949074;29;20122;-77
2022/11/27 10:39:00;;;;;;;5.05;2.88;;;13.50;89.00;;;;;;4953741;28;20127;-76
2022/11/27 10:41:36;;;;;;;5.40;2.40;;;13.50;89.00;;;;;;4946603;28;20024;-76
2022/11/27 10:44:30;;;;;;;4.25;2.20;;;13.50;89.10;;;;;;4936119;29;20078;-78
2022/11/27 10:47:04;;;;;;;4.15;2.55;;;13.50;89.20;;;;;;4949205;29;20027;-82
2022/11/27 10:49:31;;;;;;;2.05;1.70;;;13.60;89.30;;;;;;4952329;29;20030;-78
2022/11/27 10:51:56;;;;;;;2.90;1.77;;;13.60;89.30;;;;;;4953929;29;20027;-78
2022/11/27 10:54:26;;;;;;;4.28;1.83;;;13.70;89.60;;;;;;4947122;29;20090;-82
2022/11/27 10:57:10;;;;;;;3.08;1.60;;;13.70;89.70;;;;;;4943809;29;20079;-79
2022/11/27 10:59:47;;;;;;;5.50;1.77;;;13.70;89.60;;;;;;4969281;28;20031;-80
2022/11/27 11:02:30;;;;;;;3.22;1.98;;;13.80;89.70;;;;;;4955738;29;20031;-78
2022/11/27 11:04:56;;;;;;;3.20;1.73;;;13.80;89.60;;;;;;4952757;29;20027;-77
2022/11/27 11:07:27;;;;;;;3.45;2.03;;;13.80;89.60;;;;;;4955411;28;20400;-78
2022/11/27 11:09:54;;;;;;;2.75;1.98;;;13.80;89.60;;;;;;4949125;29;20055;-77
2022/11/27 11:12:22;;;;;;;3.10;2.03;;;13.80;89.60;;;;;;4948940;29;20781;-77
2022/11/27 11:14:59;;;;;;;2.85;2.22;;;13.80;89.50;;;;;;4957900;28;20027;-77
2022/11/27 11:17:27;;;;;;;2.35;1.60;;;13.80;89.50;;;;;;4954682;29;20062;-77
2022/11/27 11:19:52;;;;;;;2.60;2.20;;;13.90;89.40;;;;;;4952935;29;20111;-76
2022/11/27 11:22:19;;;;;;;3.17;2.28;;;13.90;89.60;;;;;;4955317;29;20063;-78
2022/11/27 11:24:52;;;;;;;2.63;1.63;;;13.80;89.50;;;;;;4957893;28;20031;-77
2022/11/27 11:27:24;;;;;;;2.47;1.60;;;13.80;89.50;;;;;;4953632;29;20032;-77
2022/11/27 11:29:59;;;;;;;2.92;1.50;;;13.90;89.50;;;;;;4940032;29;20051;-77
2022/11/27 11:32:32;;;;;;;2.08;1.45;;;13.90;89.40;;;;;;4938533;29;20554;-78
2022/11/27 11:35:26;;;;;;;1.67;1.30;;;13.90;89.50;;;;;;4941035;29;20039;-77
2022/11/27 11:37:52;;;;;;;1.17;0.90;;;14.00;89.60;;;;;;4940621;29;20039;-77
2022/11/27 11:40:30;;;;;;;4.22;1.10;;;14.00;89.50;;;;;;4940461;29;20086;-78
2022/11/27 11:42:59;;;;;;;1.13;0.77;;;14.00;89.50;;;;;;4940441;29;20031;-77
2022/11/27 11:45:26;;;;;;;1.50;0.90;;;14.10;89.50;;;;;;4953929;28;20035;-77
2022/11/27 11:48:20;;;;;;;2.60;1.30;;;14.10;89.60;;;;;;4952751;29;20294;-77
2022/11/27 11:50:53;;;;;;;1.60;1.30;;;14.10;89.60;;;;;;4951021;28;20031;-78
2022/11/27 11:53:35;;;;;;;2.20;1.23;;;14.00;89.30;;;;;;4958556;29;20035;-77
2022/11/27 11:56:27;;;;;;;3.53;1.52;;;14.10;89.30;;;;;;4959045;29;20066;-78
2022/11/27 11:59:01;;;;;;;3.08;1.42;;;14.00;89.10;;;;;;4946972;28;20031;-78
2022/11/27 12:01:42;;;;;;;4.57;2.00;;;13.90;88.90;;;;;;4939770;29;20079;-78
2022/11/27 12:04:45;;;;;;;2.83;2.13;;;13.90;89.00;;;;;;4952434;29;20082;-77
2022/11/27 12:07:26;;;;;;;2.75;2.13;;;13.80;89.00;;;;;;4945359;29;20046;-78
2022/11/27 12:10:18;;;;;;;8.63;2.45;;;13.80;89.00;;;;;;4939683;29;20098;-78
2022/11/27 12:13:05;;;;;;;5.20;2.10;;;13.80;89.00;;;;;;4939730;29;20067;-78
2022/11/27 12:15:35;;;;;;;4.90;2.85;;;13.80;89.10;;;;;;4940353;29;20055;-78
2022/11/27 12:18:07;;;;;;;6.43;3.15;;;13.70;89.20;;;;;;4948945;28;20091;-78
2022/11/27 12:20:40;;;;;;;5.18;2.45;;;13.80;89.10;;;;;;4939998;29;20059;-78
2022/11/27 12:23:24;;;;;;;8.13;2.58;;;13.70;89.00;;;;;;4954604;29;20145;-77
2022/11/27 12:25:54;;;;;;;2.00;1.55;;;13.80;88.90;;;;;;4954604;28;20127;-78
2022/11/27 12:28:36;;;;;;;3.85;1.90;;;13.80;88.90;;;;;;4954316;29;20071;-78
2022/11/27 12:31:10;;;;;;;4.03;2.60;;;13.80;88.90;;;;;;4939086;29;20478;-78
2022/11/27 12:33:46;;;;;;;5.85;2.42;;;13.80;88.80;;;;;;4939684;29;20454;-78
2022/11/27 12:36:32;;;;;;;4.45;2.78;;;13.70;88.70;;;;;;4939642;29;20482;-79
2022/11/27 12:39:20;;;;;;;4.63;3.00;;;13.80;88.70;;;;;;4939345;29;20043;-78
2022/11/27 12:41:57;;;;;;;8.70;3.45;;;13.70;88.70;;;;;;4939951;29;20023;-79
2022/11/27 12:44:30;;;;;;;6.20;3.17;;;13.80;88.60;;;;;;4939810;29;20478;-79
2022/11/27 12:47:21;;;;;;;6.93;3.60;;;13.80;88.50;;;;;;4939206;29;20035;-79
2022/11/27 12:50:27;;;;;;;9.15;4.55;;;13.70;88.40;;;;;;4947059;29;20027;-79
2022/11/27 12:53:10;;;;;;;7.93;4.38;;;13.70;88.50;;;;;;4956993;29;20038;-79
2022/11/27 12:55:39;;;;;;;6.82;3.60;;;13.70;88.40;;;;;;4956891;29;20055;-79
2022/11/27 12:58:15;;;;;;;9.93;5.47;;;13.70;88.20;;;;;;4946970;29;20039;-79
2022/11/27 13:00:42;;;;;;;12.65;6.13;;;13.70;88.50;;;;;;4937669;29;20044;-79
2022/11/27 13:03:20;;;;;;;10.20;5.05;;;13.70;88.50;;;;;;4943965;29;20079;-79
2022/11/27 13:05:56;;;;;;;8.20;5.57;;;13.70;88.40;;;;;;4956841;29;20031;-78
2022/11/27 13:08:29;;;;;;;16.02;6.65;;;13.70;88.40;;;;;;4958383;28;20493;-78
2022/11/27 13:10:59;;;;;;;14.07;6.03;;;13.70;88.40;;;;;;4956089;29;20665;-79
2022/11/27 13:13:34;;;;;;;13.15;7.53;;;13.70;88.30;;;;;;4958373;28;20117;-78
2022/11/27 13:16:08;;;;;;;9.75;4.63;;;13.70;88.30;;;;;;4957162;29;20376;-77
2022/11/27 13:18:37;;;;;;;14.38;7.65;;;13.70;88.20;;;;;;4958028;28;20039;-78
2022/11/27 13:21:13;;;;;;;13.13;6.80;;;13.70;88.40;;;;;;4942529;28;20514;-79
2022/11/27 13:23:39;;;;;;;9.45;6.50;;;13.70;88.30;;;;;;4938756;29;20036;-78
2022/11/27 13:26:21;;;;;;;12.07;6.63;;;13.60;88.40;;;;;;4938689;29;20031;-78
2022/11/27 13:28:53;;;;;;;14.98;7.72;;;13.60;88.50;;;;;;4938928;29;20030;-79
2022/11/27 13:31:29;;;;;;;13.23;7.40;;;13.70;88.50;;;;;;4937118;29;20028;-78
2022/11/27 13:34:07;;;;;;;13.93;7.15;;;13.60;88.30;;;;;;4953852;28;20055;-78
2022/11/27 13:36:43;;;;;;;15.50;7.32;;;13.60;88.50;;;;;;4937161;29;20028;-78
2022/11/27 13:39:27;;;;;;;13.57;7.70;;;13.70;88.50;;;;;;4937285;29;20702;-78
2022/11/27 13:42:04;;;;;;;16.67;6.95;;;13.60;88.40;;;;;;4943465;28;20038;-78
2022/11/27 13:44:31;;;;;;;11.57;6.88;;;13.70;88.60;;;;;;4938283;29;20042;-77
2022/11/27 13:47:16;;;;;;;13.38;6.97;;;13.60;88.60;;;;;;4938114;29;20581;-78
2022/11/27 13:49:42;;;;;;;14.85;6.90;;;13.70;88.60;;;;;;4938284;29;20487;-78
2022/11/27 13:52:16;;;;;;;12.90;7.30;;;13.70;88.40;;;;;;4950194;29;20525;-79
2022/11/27 13:55:00;;;;;;;12.13;8.02;;;13.60;88.40;;;;;;4957092;28;20035;-79
2022/11/27 13:57:27;;;;;;;16.63;8.20;;;13.60;88.60;;;;;;4956341;29;20104;-79
2022/11/27 14:00:07;;;;;;;13.23;6.43;;;13.60;88.40;;;;;;4944418;29;20031;-78
2022/11/27 14:02:49;;;;;;;14.40;7.93;;;13.70;88.50;;;;;;4937978;29;20039;-78
2022/11/27 14:05:18;;;;;;;19.27;9.43;;;13.60;88.40;;;;;;4938147;29;20264;-78
2022/11/27 14:07:47;;;;;;;14.70;8.45;;;13.60;88.40;;;;;;4938461;29;20067;-78
2022/11/27 14:10:21;;;;;;;18.20;8.45;;;13.70;88.60;;;;;;4938853;29;20027;-78
2022/11/27 14:13:08;;;;;;;17.35;7.95;;;13.70;88.40;;;;;;4957104;28;20592;-78
2022/11/27 14:15:36;;;;;;;16.08;9.38;;;13.60;88.40;;;;;;4936703;29;20433;-79
2022/11/27 14:18:08;;;;;;;15.77;8.15;;;13.60;88.50;;;;;;4937775;29;20032;-78
2022/11/27 14:20:43;;;;;;;14.25;8.43;;;13.60;88.50;;;;;;4937977;29;20031;-78
2022/11/27 14:23:09;;;;;;;18.92;8.25;;;13.60;88.60;;;;;;4947414;29;20039;-78
2022/11/27 14:25:35;;;;;;;18.67;9.68;;;13.60;88.40;;;;;;4953623;29;20036;-78
2022/11/27 14:28:26;;;;;;;15.05;9.10;;;13.60;88.50;;;;;;4955578;29;20505;-79
2022/11/27 14:30:54;;;;;;;15.95;9.40;;;13.60;88.70;;;;;;4956944;29;20031;-78
2022/11/27 14:33:23;;;;;;;17.65;8.75;;;13.60;88.80;;;;;;4947129;29;20031;-78
2022/11/27 14:36:00;;;;;;;13.55;8.40;;;13.60;88.50;;;;;;4936581;29;20162;-78
2022/11/27 14:38:27;;;;;;;13.13;8.38;;;13.70;88.50;;;;;;4952181;29;20070;-78
2022/11/27 14:41:06;;;;;;;18.55;8.23;;;13.60;88.60;;;;;;4936756;28;20523;-78
2022/11/27 14:43:31;;;;;;;13.23;7.38;;;13.70;88.60;;;;;;4941240;29;20032;-78
2022/11/27 14:46:00;;;;;;;16.35;9.50;;;13.60;88.40;;;;;;4941840;29;20514;-79
2022/11/27 14:48:40;;;;;;;15.82;8.43;;;13.50;88.70;;;;;;4941427;29;20374;-79
2022/11/27 14:51:12;;;;;;;13.40;8.43;;;13.50;88.80;;;;;;4941709;29;20024;-79
2022/11/27 14:53:38;;;;;;;16.52;9.02;;;13.60;88.80;;;;;;4956306;29;20058;-78
2022/11/27 14:56:04;;;;;;;18.75;10.13;;;13.50;88.60;;;;;;4955743;28;20471;-79
2022/11/27 14:58:30;;;;;;;16.42;8.27;;;13.60;88.70;;;;;;4941252;29;20498;-79
2022/11/27 15:01:03;;;;;;;16.45;8.10;;;13.60;88.30;;;;;;4941338;29;20118;-79
2022/11/27 15:03:29;;;;;;;19.90;10.23;;;13.60;88.50;;;;;;4943618;29;20491;-78
2022/11/27 15:06:04;;;;;;;15.45;9.00;;;13.50;88.40;;;;;;4941093;29;20127;-79
2022/11/27 15:08:34;;;;;;;16.20;8.30;;;13.50;88.40;;;;;;4960082;29;20039;-78
2022/11/27 15:11:01;;;;;;;12.32;7.95;;;13.50;88.50;;;;;;4960056;29;20491;-78
2022/11/27 15:13:31;;;;;;;19.90;8.45;;;13.50;88.30;;;;;;4960324;28;20414;-77
2022/11/27 15:16:02;;;;;;;13.35;7.40;;;13.50;88.50;;;;;;4959968;29;20019;-78
2022/11/27 15:18:29;;;;;;;15.10;8.15;;;13.50;88.50;;;;;;4949491;29;20463;-77
2022/11/27 15:20:57;;;;;;;12.25;7.10;;;13.50;88.60;;;;;;4955578;29;20035;-79
2022/11/27 15:23:30;;;;;;;13.13;7.53;;;13.50;88.50;;;;;;4939411;29;20119;-79
2022/11/27 15:25:58;;;;;;;12.68;7.45;;;13.50;88.50;;;;;;4939753;29;20107;-80
2022/11/27 15:28:42;;;;;;;12.77;7.78;;;13.50;88.60;;;;;;4940829;29;20035;-79
2022/11/27 15:31:27;;;;;;;12.70;6.95;;;13.50;88.70;;;;;;4940885;29;20028;-78
2022/11/27 15:34:05;;;;;;;12.55;7.93;;;13.50;88.80;;;;;;4940589;29;20031;-78
2022/11/27 15:36:58;;;;;;;13.60;8.50;;;13.50;88.70;;;;;;4955328;29;20039;-79
2022/11/27 15:39:48;;;;;;;14.30;8.30;;;13.50;88.70;;;;;;4940124;29;20503;-78
2022/11/27 15:42:16;;;;;;;17.15;8.57;;;13.60;88.70;;;;;;4943157;29;20035;-79
2022/11/27 15:44:42;;;;;;;16.23;9.82;;;13.60;88.50;;;;;;4948851;29;20505;-79
2022/11/27 15:47:19;;;;;;;14.98;8.13;;;13.70;88.70;;;;;;4956932;29;20031;-79
2022/11/27 15:49:50;;;;;;;16.00;8.10;;;13.70;88.50;;;;;;4955097;29;20030;-79
2022/11/27 15:52:15;;;;;;;12.68;7.60;;;13.70;88.70;;;;;;4939910;29;20028;-79
2022/11/27 15:54:41;;;;;;;12.77;8.65;;;13.70;88.50;;;;;;4940027;29;20114;-79
2022/11/27 15:57:06;;;;;;;13.80;8.23;;;13.70;88.60;;;;;;4940758;29;20071;-79
2022/11/27 15:59:32;;;;;;;20.02;9.68;;;13.70;88.60;;;;;;4948638;29;20117;-79
2022/11/27 16:01:58;;;;;;;16.33;10.00;;;13.80;88.60;;;;;;4958756;29;20550;-79
2022/11/27 16:04:23;;;;;;;10.57;6.82;;;13.80;88.60;;;;;;4954543;29;20090;-80
2022/11/27 16:06:49;;;;;;;13.43;8.32;;;13.80;88.60;;;;;;4957867;29;20422;-79
2022/11/27 16:09:14;;;;;;;13.82;8.90;;;13.80;88.60;;;;;;4953699;29;20550;-80
2022/11/27 16:11:40;;;;;;;14.23;8.65;;;13.80;88.60;;;;;;4950813;29;20054;-79
2022/11/27 16:14:06;;;;;;;14.40;8.88;;;13.90;88.60;;;;;;4951953;29;20036;-79
2022/11/27 16:16:32;;;;;;;13.68;8.57;;;13.90;88.50;;;;;;4939779;29;21332;-79
2022/11/27 16:18:59;;;;;;;13.32;7.15;;;13.90;88.40;;;;;;4939838;29;20455;-79
2022/11/27 16:21:26;;;;;;;10.88;6.43;;;13.90;88.50;;;;;;4939670;29;20027;-80
2022/11/27 16:23:58;;;;;;;16.05;7.07;;;13.90;88.50;;;;;;4938739;29;20063;-80
2022/11/27 16:26:25;;;;;;;13.40;5.85;;;13.90;88.60;;;;;;4939904;29;20443;-80
2022/11/27 16:28:51;;;;;;;14.82;6.43;;;13.90;88.50;;;;;;4938474;29;20028;-80
2022/11/27 16:31:16;;;;;;;9.35;5.22;;;14.00;88.50;;;;;;4939448;29;20500;-80
2022/11/27 16:33:42;;;;;;;10.63;6.53;;;14.00;88.50;;;;;;4954609;29;20024;-81
2022/11/27 16:36:10;;;;;;;9.02;4.70;;;14.00;88.50;;;;;;4953821;28;20086;-79
2022/11/27 16:38:35;;;;;;;9.50;4.20;;;14.00;88.50;;;;;;4939347;29;20114;-80
2022/11/27 16:41:08;;;;;;;7.90;5.32;;;14.00;88.60;;;;;;4953917;29;20071;-80
2022/11/27 16:43:38;;;;;;;5.70;4.38;;;14.00;88.60;;;;;;4952584;29;20464;-80
2022/11/27 16:46:06;;;;;;;12.07;7.43;;;14.00;88.60;;;;;;4942316;28;20039;-82
2022/11/27 16:48:35;;;;;;;5.90;3.05;;;14.00;88.50;;;;;;4957756;28;20083;-78
2022/11/27 16:51:17;;;;;;;8.98;5.30;;;14.00;88.40;;;;;;4956333;28;20038;-81
2022/11/27 16:53:45;;;;;;;8.65;4.95;;;13.90;88.50;;;;;;4969179;28;20043;-75
2022/11/27 16:56:13;;;;;;;11.13;5.43;;;14.00;88.20;;;;;;4934402;28;20042;-75
2022/11/27 16:58:40;;;;;;;5.88;4.57;;;13.90;88.10;;;;;;4938497;28;20111;-75
2022/11/27 17:01:11;;;;;;;6.40;5.35;;;13.90;88.00;;;;;;4959836;28;20105;-77
2022/11/27 17:03:37;;;;;;;5.07;3.83;;;13.80;88.00;;;;;;4963759;28;20067;-76
2022/11/27 17:06:11;;;;;;;4.57;3.03;;;13.80;88.00;;;;;;4957391;28;20038;-86
2022/11/27 17:08:37;;;;;;;5.45;3.17;;;13.80;87.70;;;;;;4959650;28;20038;-85
2022/11/27 17:11:21;;;;;;;6.70;3.85;;;13.80;87.80;;;;;;4957552;29;20431;-85
2022/11/27 17:13:48;;;;;;;4.18;3.13;;;13.70;87.70;;;;;;4954006;28;20028;-87
2022/11/27 17:16:14;;;;;;;6.25;3.22;;;13.80;87.80;;;;;;4955496;28;20520;-81
2022/11/27 17:18:41;;;;;;;11.20;5.68;;;13.70;87.40;;;;;;4930442;29;20043;-83
2022/11/27 17:21:26;;;;;;;34.88;14.07;;;13.70;87.40;;;;;;4955248;28;20035;-79
2022/11/27 17:23:54;;;;;;;27.77;10.07;;;13.70;87.40;;;;;;4961512;28;20031;-79
2022/11/27 17:26:41;;;;;;;9.65;4.15;;;13.70;87.40;;;;;;4956232;28;20035;-80
2022/11/27 17:29:08;;;;;;;5.72;3.80;;;13.70;87.30;;;;;;4955715;28;20027;-78
2022/11/27 17:31:35;;;;;;;8.15;4.68;;;13.60;87.30;;;;;;4964990;28;20480;-79
2022/11/27 17:34:05;;;;;;;10.50;5.90;;;13.60;87.20;;;;;;4956185;28;20114;-78
2022/11/27 17:36:32;;;;;;;18.02;10.00;;;13.60;87.30;;;;;;4960351;28;20078;-82
2022/11/27 17:38:59;;;;;;;41.17;17.92;;;13.60;87.20;;;;;;4959776;28;20042;-76
2022/11/27 17:41:25;;;;;;;33.53;12.77;;;13.60;87.40;;;;;;4963215;28;20455;-78
2022/11/27 17:43:53;;;;;;;30.05;11.82;;;13.60;86.90;;;;;;4958102;28;20068;-78
2022/11/27 17:46:31;;;;;;;22.35;11.00;;;13.50;87.10;;;;;;4962330;28;20027;-78
2022/11/27 17:48:59;;;;;;;12.20;7.00;;;13.50;87.20;;;;;;4962389;28;20019;-78
2022/11/27 17:51:26;;;;;;;4.50;3.13;;;13.50;87.30;;;;;;4959227;28;20031;-77
2022/11/27 17:53:52;;;;;;;5.05;2.83;;;13.50;87.10;;;;;;4943694;29;20114;-78
2022/11/27 17:56:19;;;;;;;6.15;4.55;;;13.50;87.00;;;;;;4953937;29;20151;-77
2022/11/27 17:58:45;;;;;;;8.60;5.70;;;13.40;86.50;;;;;;4953026;28;20508;-77
2022/11/27 18:01:18;;;;;;;8.05;6.60;;;13.30;87.10;;;;;;4958946;28;20035;-77
2022/11/27 18:03:45;;;;;;;10.18;7.25;;;13.40;87.30;;;;;;4965059;28;20154;-77
2022/11/27 18:06:29;;;;;;;7.82;5.25;;;13.40;87.30;;;;;;4963998;28;20038;-87
2022/11/27 18:08:56;;;;;;;6.88;4.07;;;13.40;87.00;;;;;;4959449;28;20043;-76
2022/11/27 18:11:26;;;;;;;7.68;5.55;;;13.40;87.00;;;;;;4962707;28;20027;-81
2022/11/27 18:13:53;;;;;;;8.93;6.43;;;13.40;87.10;;;;;;4954837;29;20038;-80
2022/11/27 18:16:27;;;;;;;25.77;16.50;;;13.40;87.00;;;;;;4956900;28;20499;-79
2022/11/27 18:18:53;;;;;;;17.65;10.18;;;13.30;86.70;;;;;;4953715;29;20039;-78
2022/11/27 18:21:20;;;;;;;15.07;8.60;;;13.40;87.10;;;;;;4955955;28;20031;-78
2022/11/27 18:23:48;;;;;;;15.90;10.50;;;13.30;86.90;;;;;;4955314;28;21572;-76
2022/11/27 18:26:17;;;;;;;11.02;7.60;;;13.30;86.70;;;;;;4951599;29;20455;-78
2022/11/27 18:28:43;;;;;;;16.88;9.32;;;13.30;86.60;;;;;;4954910;29;20035;-79
2022/11/27 18:31:15;;;;;;;15.65;9.52;;;13.30;86.50;;;;;;4955522;28;20082;-78
2022/11/27 18:33:41;;;;;;;11.60;8.57;;;13.30;86.70;;;;;;4949508;28;20023;-76
2022/11/27 18:36:08;;;;;;;16.52;10.15;;;13.30;86.10;;;;;;4955465;29;20054;-78